createdAt,value
2023-01-02T00:00:01.463Z,70.29
2023-01-02T00:01:01.516Z,70.29
2023-01-02T00:02:01.596Z,70.29
2023-01-02T00:03:01.504Z,70.29
2023-01-02T00:04:01.562Z,70.29
2023-01-02T00:05:01.387Z,70.19
2023-01-02T00:06:01.403Z,70.19
2023-01-02T00:07:01.396Z,70.29
2023-01-02T00:08:01.380Z,70.39
2023-01-02T00:09:01.384Z,70.39
2023-01-02T00:10:01.381Z,70.29
2023-01-02T00:11:01.363Z,70.39
2023-01-02T00:12:01.339Z,70.39
2023-01-02T00:13:01.347Z,70.39
2023-01-02T00:14:01.300Z,70.39
2023-01-02T00:15:01.307Z,70.39
2023-01-02T00:16:01.368Z,70.39
2023-01-02T00:17:01.285Z,70.39
2023-01-02T00:18:01.273Z,70.39
2023-01-02T00:19:01.251Z,70.39
2023-01-02T00:20:01.262Z,70.39
2023-01-02T00:21:01.228Z,70.29
2023-01-02T00:22:01.251Z,70.39
2023-01-02T00:23:01.291Z,70.29
2023-01-02T00:24:01.206Z,70.29
2023-01-02T00:25:01.405Z,70.50
2023-01-02T00:26:01.169Z,70.29
2023-01-02T00:27:01.170Z,70.29
2023-01-02T00:28:01.140Z,70.19
2023-01-02T00:29:01.135Z,70.09
2023-01-02T00:30:01.185Z,70.19
2023-01-02T00:31:01.184Z,70.19
2023-01-02T00:32:01.101Z,70.09
2023-01-02T00:33:01.106Z,70.19
2023-01-02T00:34:01.104Z,70.09
2023-01-02T00:35:01.096Z,70.09
2023-01-02T00:36:01.070Z,70.09
2023-01-02T00:37:01.052Z,70.09
2023-01-02T00:38:01.042Z,70.19
2023-01-02T00:39:01.015Z,70.09
2023-01-02T00:40:01.015Z,70.19
2023-01-02T00:41:01.017Z,70.19
2023-01-02T00:42:01.042Z,69.99
2023-01-02T00:43:00.974Z,69.99
2023-01-02T00:44:01.009Z,70.19
2023-01-02T00:45:00.987Z,69.89
2023-01-02T00:46:03.658Z,69.79
2023-01-02T00:47:02.405Z,69.79
2023-01-02T00:48:01.919Z,69.99
2023-01-02T00:49:01.021Z,69.89
2023-01-02T00:50:00.920Z,69.99
2023-01-02T00:51:00.958Z,69.99
2023-01-02T00:52:00.908Z,70.09
2023-01-02T00:53:01.171Z,70.19
2023-01-02T00:54:00.929Z,70.29
2023-01-02T00:55:01.398Z,70.39
2023-01-02T00:56:00.914Z,70.39
2023-01-02T01:01:18.505Z,70.59
2023-01-02T01:02:40.542Z,70.70
2023-01-02T01:07:20.187Z,70.90
2023-01-02T01:08:20.696Z,71.03
2023-01-02T01:09:22.429Z,71.03
2023-01-02T01:10:18.763Z,71.00
2023-01-02T01:11:18.806Z,71.03
2023-01-02T01:24:49.349Z,71.44
2023-01-02T01:25:48.871Z,71.44
2023-01-02T01:26:48.779Z,71.44
2023-01-02T01:27:49.030Z,71.44
2023-01-02T01:28:48.904Z,71.44
2023-01-02T01:29:48.761Z,71.44
2023-01-02T01:30:48.895Z,71.53
2023-01-02T01:31:48.943Z,71.53
2023-01-02T01:32:48.872Z,71.53
2023-01-02T01:33:51.209Z,71.53
2023-01-02T01:34:48.950Z,71.64
2023-01-02T01:35:49.995Z,71.64
2023-01-02T01:36:48.760Z,71.64
2023-01-02T01:37:55.923Z,71.73
2023-01-02T01:38:48.568Z,71.64
2023-01-02T01:39:51.523Z,71.73
2023-01-02T01:40:49.552Z,71.73
2023-01-02T01:41:48.557Z,71.84
2023-01-02T01:42:50.396Z,71.84
2023-01-02T01:43:48.508Z,71.84
2023-01-02T01:44:48.515Z,71.84
2023-01-02T01:45:48.525Z,71.84
2023-01-02T01:46:48.486Z,71.84
2023-01-02T01:47:48.496Z,71.84
2023-01-02T01:48:48.473Z,71.84
2023-01-02T01:49:49.218Z,71.84
2023-01-02T01:50:48.464Z,71.94
2023-01-02T01:51:48.431Z,71.94
2023-01-02T01:52:48.423Z,71.94
2023-01-02T01:53:48.405Z,71.94
2023-01-02T01:54:48.404Z,71.94
2023-01-02T01:55:48.392Z,71.94
2023-01-02T01:56:48.379Z,72.04
2023-01-02T01:57:48.378Z,72.04
2023-01-02T01:58:48.350Z,72.04
2023-01-02T01:59:48.360Z,72.04
2023-01-02T02:00:48.401Z,72.04
2023-01-02T02:01:48.493Z,72.04
2023-01-02T02:02:48.448Z,72.04
2023-01-02T02:03:48.327Z,72.04
2023-01-02T02:04:48.284Z,72.04
2023-01-02T02:05:48.269Z,72.04
2023-01-02T02:06:48.268Z,72.04
2023-01-02T02:07:48.281Z,72.04
2023-01-02T02:08:48.261Z,72.04
2023-01-02T02:09:48.228Z,72.04
2023-01-02T02:10:48.262Z,72.04
2023-01-02T02:11:48.223Z,72.04
2023-01-02T02:12:48.187Z,72.04
2023-01-02T02:13:48.188Z,72.04
2023-01-02T02:14:48.175Z,72.04
2023-01-02T02:15:48.169Z,72.04
2023-01-02T02:16:48.201Z,72.04
2023-01-02T02:17:48.137Z,72.04
2023-01-02T02:18:48.157Z,72.04
2023-01-02T02:19:48.131Z,72.04
2023-01-02T02:20:48.095Z,72.04
2023-01-02T02:21:48.094Z,72.04
2023-01-02T02:22:48.079Z,72.14
2023-01-02T02:23:48.090Z,72.04
2023-01-02T02:24:48.086Z,72.04
2023-01-02T02:25:48.084Z,72.14
2023-01-02T02:26:48.033Z,72.14
2023-01-02T02:27:48.091Z,72.14
2023-01-02T02:28:48.028Z,72.14
2023-01-02T02:29:48.025Z,72.14
2023-01-02T02:30:47.998Z,72.14
2023-01-02T02:31:48.025Z,72.14
2023-01-02T02:32:47.981Z,72.17
2023-01-02T02:33:47.984Z,72.14
2023-01-02T02:34:47.946Z,72.14
2023-01-02T02:35:47.945Z,72.17
2023-01-02T02:36:47.963Z,72.17
2023-01-02T02:37:47.917Z,72.14
2023-01-02T02:38:47.908Z,72.17
2023-01-02T02:39:47.909Z,72.17
2023-01-02T02:40:47.916Z,72.27
2023-01-02T02:41:47.864Z,72.27
2023-01-02T02:42:47.857Z,72.17
2023-01-02T02:43:47.861Z,72.17
2023-01-02T02:44:47.850Z,72.27
2023-01-02T02:45:47.874Z,72.27
2023-01-02T02:46:47.816Z,72.27
2023-01-02T02:47:47.817Z,72.27
2023-01-02T02:48:47.805Z,72.27
2023-01-02T02:49:47.788Z,72.27
2023-01-02T02:50:47.767Z,72.27
2023-01-02T02:51:47.764Z,72.38
2023-01-02T02:52:47.771Z,72.27
2023-01-02T02:53:47.759Z,72.38
2023-01-02T02:54:47.722Z,72.38
2023-01-02T02:55:47.732Z,72.38
2023-01-02T02:56:47.714Z,72.38
2023-01-02T02:57:47.700Z,72.38
2023-01-02T02:58:47.697Z,72.38
2023-01-02T02:59:47.690Z,72.47
2023-01-02T03:00:47.730Z,72.47
2023-01-02T03:01:47.692Z,72.47
2023-01-02T03:02:47.714Z,72.38
2023-01-02T03:03:47.645Z,72.38
2023-01-02T03:04:47.631Z,72.47
2023-01-02T03:05:47.606Z,72.58
2023-01-02T03:06:47.606Z,72.67
2023-01-02T03:07:47.597Z,72.88
2023-01-02T03:08:47.575Z,73.08
2023-01-02T03:09:47.566Z,73.18
2023-01-02T03:10:47.581Z,73.18
2023-01-02T03:11:47.548Z,73.18
2023-01-02T03:12:47.522Z,73.18
2023-01-02T03:13:47.522Z,73.08
2023-01-02T03:14:47.521Z,73.08
2023-01-02T03:15:47.548Z,73.38
2023-01-02T03:16:47.539Z,73.28
2023-01-02T03:17:47.622Z,73.28
2023-01-02T03:18:47.469Z,73.28
2023-01-02T03:19:47.452Z,73.18
2023-01-02T03:20:47.430Z,73.18
2023-01-02T03:21:47.484Z,73.08
2023-01-02T03:22:47.426Z,73.05
2023-01-02T03:23:47.432Z,73.14
2023-01-02T03:24:47.436Z,73.14
2023-01-02T03:25:47.382Z,73.14
2023-01-02T03:26:47.387Z,73.14
2023-01-02T03:27:47.361Z,73.05
2023-01-02T03:28:47.366Z,73.05
2023-01-02T03:29:47.350Z,72.94
2023-01-02T03:30:47.361Z,73.05
2023-01-02T03:31:47.318Z,72.94
2023-01-02T03:32:47.303Z,72.94
2023-01-02T03:33:47.301Z,72.94
2023-01-02T03:34:47.281Z,72.94
2023-01-02T03:35:47.281Z,72.94
2023-01-02T03:36:47.279Z,72.94
2023-01-02T03:37:47.251Z,72.94
2023-01-02T03:38:47.253Z,72.94
2023-01-02T03:39:47.473Z,72.94
2023-01-02T03:40:47.253Z,72.94
2023-01-02T03:41:47.211Z,72.94
2023-01-02T03:42:47.205Z,72.94
2023-01-02T03:43:50.133Z,73.05
2023-01-02T03:44:48.183Z,73.05
2023-01-02T03:45:47.192Z,73.05
2023-01-02T03:46:47.151Z,73.05
2023-01-02T03:47:47.141Z,73.05
2023-01-02T03:48:47.130Z,73.14
2023-01-02T03:49:47.132Z,73.14
2023-01-02T03:50:47.100Z,73.14
2023-01-02T03:51:47.136Z,73.14
2023-01-02T03:52:47.101Z,73.14
2023-01-02T03:53:47.085Z,73.25
2023-01-02T03:54:47.076Z,73.14
2023-01-02T03:55:47.058Z,73.14
2023-01-02T03:56:47.052Z,73.25
2023-01-02T03:57:50.801Z,73.25
2023-01-02T03:58:48.038Z,73.25
2023-01-02T03:59:47.022Z,73.25
2023-01-02T04:00:47.010Z,73.35
2023-01-02T04:01:47.072Z,73.35
2023-01-02T04:02:47.110Z,73.45
2023-01-02T04:03:46.995Z,73.45
2023-01-02T04:04:50.659Z,73.45
2023-01-02T04:05:46.986Z,73.55
2023-01-02T04:06:46.942Z,73.65
2023-01-02T04:07:47.003Z,73.65
2023-01-02T04:08:46.933Z,73.75
2023-01-02T04:09:46.921Z,73.75
2023-01-02T04:10:46.901Z,73.65
2023-01-02T04:11:46.914Z,73.65
2023-01-02T04:12:46.857Z,73.75
2023-01-02T04:13:46.856Z,73.75
2023-01-02T04:14:46.845Z,73.75
2023-01-02T04:15:46.904Z,73.75
2023-01-02T04:16:46.835Z,73.75
2023-01-02T04:17:46.829Z,73.75
2023-01-02T04:18:47.258Z,73.75
2023-01-02T04:19:46.871Z,73.75
2023-01-02T04:20:46.791Z,73.75
2023-01-02T04:21:46.791Z,73.85
2023-01-02T04:22:46.751Z,73.85
2023-01-02T04:23:46.773Z,73.85
2023-01-02T04:24:46.759Z,73.85
2023-01-02T04:25:46.734Z,73.85
2023-01-02T04:26:46.723Z,73.85
2023-01-02T04:27:46.728Z,73.95
2023-01-02T04:28:46.713Z,73.95
2023-01-02T04:29:46.675Z,73.95
2023-01-02T04:30:46.730Z,73.95
2023-01-02T04:31:46.671Z,73.95
2023-01-02T04:32:46.654Z,73.95
2023-01-02T04:33:46.639Z,74.05
2023-01-02T04:34:46.639Z,74.05
2023-01-02T04:35:46.605Z,74.05
2023-01-02T04:36:46.626Z,74.05
2023-01-02T04:37:46.591Z,74.05
2023-01-02T04:38:46.610Z,74.05
2023-01-02T04:39:46.991Z,73.99
2023-01-02T04:40:46.571Z,74.05
2023-01-02T04:41:46.563Z,74.08
2023-01-02T04:42:46.550Z,74.08
2023-01-02T04:43:46.525Z,73.99
2023-01-02T04:44:46.527Z,73.99
2023-01-02T04:45:46.544Z,73.99
2023-01-02T04:46:46.501Z,73.99
2023-01-02T04:47:46.475Z,73.99
2023-01-02T04:48:46.480Z,73.99
2023-01-02T04:49:46.476Z,73.99
2023-01-02T04:50:46.448Z,73.99
2023-01-02T04:51:46.447Z,73.99
2023-01-02T04:52:46.414Z,74.08
2023-01-02T04:53:46.429Z,74.08
2023-01-02T04:54:46.415Z,73.99
2023-01-02T04:55:46.418Z,74.08
2023-01-02T04:56:46.380Z,74.08
2023-01-02T04:57:46.371Z,74.08
2023-01-02T04:58:46.374Z,74.19
2023-01-02T04:59:46.352Z,74.19
2023-01-02T05:00:46.334Z,74.19
2023-01-02T05:01:46.418Z,74.19
2023-01-02T05:02:46.400Z,74.19
2023-01-02T05:03:46.356Z,74.19
2023-01-02T05:04:46.323Z,74.19
2023-01-02T05:05:46.284Z,74.19
2023-01-02T05:06:46.294Z,74.19
2023-01-02T05:07:46.307Z,74.19
2023-01-02T05:08:46.242Z,74.29
2023-01-02T05:09:46.261Z,74.29
2023-01-02T05:10:46.237Z,74.19
2023-01-02T05:11:46.235Z,74.29
2023-01-02T05:12:46.193Z,74.29
2023-01-02T05:13:46.230Z,74.15
2023-01-02T05:14:46.188Z,74.15
2023-01-02T05:15:46.215Z,74.19
2023-01-02T05:16:46.152Z,74.15
2023-01-02T05:17:46.159Z,74.15
2023-01-02T05:18:46.147Z,74.15
2023-01-02T05:19:46.131Z,74.15
2023-01-02T05:20:46.125Z,74.05
2023-01-02T05:21:46.117Z,74.05
2023-01-02T05:22:46.110Z,74.05
2023-01-02T05:23:46.099Z,74.05
2023-01-02T05:24:46.087Z,74.05
2023-01-02T05:25:46.067Z,73.95
2023-01-02T05:26:46.061Z,73.95
2023-01-02T05:27:46.044Z,74.05
2023-01-02T05:28:46.047Z,74.05
2023-01-02T05:29:46.033Z,74.05
2023-01-02T05:30:46.027Z,73.95
2023-01-02T05:31:45.996Z,73.95
2023-01-02T05:32:46.033Z,74.05
2023-01-02T05:33:45.984Z,74.05
2023-01-02T05:34:46.056Z,74.05
2023-01-02T05:35:45.969Z,74.05
2023-01-02T05:36:45.933Z,74.05
2023-01-02T05:37:45.946Z,74.05
2023-01-02T05:38:45.931Z,74.05
2023-01-02T05:39:45.917Z,74.05
2023-01-02T05:40:45.922Z,74.05
2023-01-02T05:41:45.928Z,74.05
2023-01-02T05:42:45.863Z,74.05
2023-01-02T05:43:45.867Z,74.05
2023-01-02T05:44:45.840Z,74.15
2023-01-02T05:45:45.840Z,74.15
2023-01-02T05:46:45.871Z,74.05
2023-01-02T05:47:45.832Z,74.05
2023-01-02T05:48:45.802Z,74.15
2023-01-02T05:49:45.806Z,74.15
2023-01-02T05:50:45.807Z,74.15
2023-01-02T05:51:45.784Z,74.15
2023-01-02T05:52:46.236Z,74.15
2023-01-02T05:53:45.773Z,74.15
2023-01-02T05:54:45.739Z,74.26
2023-01-02T05:55:45.721Z,74.26
2023-01-02T05:56:46.464Z,74.26
2023-01-02T05:57:45.736Z,74.35
2023-01-02T05:58:45.728Z,74.35
2023-01-02T05:59:45.679Z,74.26
2023-01-02T06:00:45.695Z,74.26
2023-01-02T06:01:45.714Z,74.26
2023-01-02T06:02:48.360Z,74.26
2023-01-02T06:03:45.704Z,74.26
2023-01-02T06:04:45.644Z,74.26
2023-01-02T06:05:45.620Z,74.26
2023-01-02T06:06:45.609Z,74.26
2023-01-02T06:07:45.610Z,74.26
2023-01-02T06:08:45.598Z,74.26
2023-01-02T06:09:45.613Z,74.26
2023-01-02T06:10:45.572Z,74.26
2023-01-02T06:11:45.574Z,74.26
2023-01-02T06:12:45.539Z,74.26
2023-01-02T06:13:45.533Z,74.26
2023-01-02T06:14:45.550Z,74.26
2023-01-02T06:15:45.532Z,74.26
2023-01-02T06:16:45.576Z,74.26
2023-01-02T06:17:45.489Z,74.46
2023-01-02T06:18:45.479Z,74.46
2023-01-02T06:19:50.272Z,74.49
2023-01-02T06:20:46.497Z,74.46
2023-01-02T06:21:45.456Z,74.49
2023-01-02T06:22:45.453Z,74.49
2023-01-02T06:23:45.448Z,74.39
2023-01-02T06:24:45.409Z,74.39
2023-01-02T06:25:45.418Z,74.39
2023-01-02T06:26:45.410Z,74.39
2023-01-02T06:27:45.388Z,74.39
2023-01-02T06:28:45.435Z,74.39
2023-01-02T06:29:45.364Z,74.39
2023-01-02T06:30:45.361Z,74.49
2023-01-02T06:31:51.071Z,74.49
2023-01-02T06:32:46.316Z,74.39
2023-01-02T06:33:45.331Z,74.39
2023-01-02T06:34:45.302Z,74.29
2023-01-02T06:35:45.298Z,74.29
2023-01-02T06:36:45.287Z,74.29
2023-01-02T06:37:45.280Z,74.29
2023-01-02T06:38:45.275Z,74.29
2023-01-02T06:39:45.247Z,74.29
2023-01-02T06:40:45.234Z,74.29
2023-01-02T06:41:45.239Z,74.29
2023-01-02T06:42:45.227Z,74.39
2023-01-02T06:43:45.223Z,74.39
2023-01-02T06:44:45.184Z,74.39
2023-01-02T06:45:45.245Z,74.39
2023-01-02T06:46:45.175Z,74.39
2023-01-02T06:47:45.166Z,74.39
2023-01-02T06:48:45.135Z,74.35
2023-01-02T06:49:45.145Z,74.35
2023-01-02T06:50:45.128Z,74.35
2023-01-02T06:51:45.121Z,74.39
2023-01-02T06:52:45.128Z,74.26
2023-01-02T06:53:45.107Z,74.26
2023-01-02T06:54:45.113Z,74.26
2023-01-02T06:55:45.054Z,74.26
2023-01-02T06:56:45.063Z,74.26
2023-01-02T06:57:45.070Z,74.15
2023-01-02T06:58:45.073Z,74.15
2023-01-02T06:59:45.013Z,74.15
2023-01-02T07:00:45.097Z,74.15
2023-01-02T07:01:45.177Z,74.15
2023-01-02T07:02:45.106Z,74.15
2023-01-02T07:03:44.981Z,74.15
2023-01-02T07:04:44.991Z,74.15
2023-01-02T07:05:45.014Z,74.15
2023-01-02T07:06:44.963Z,74.15
2023-01-02T07:07:44.973Z,74.15
2023-01-02T07:08:44.936Z,74.15
2023-01-02T07:09:44.903Z,74.05
2023-01-02T07:10:49.454Z,74.05
2023-01-02T07:11:45.874Z,74.15
2023-01-02T07:12:44.873Z,74.05
2023-01-02T07:13:44.919Z,74.05
2023-01-02T07:14:44.865Z,74.15
2023-01-02T07:15:44.846Z,74.15
2023-01-02T07:16:44.915Z,74.05
2023-01-02T07:17:44.821Z,74.05
2023-01-02T07:18:44.813Z,74.15
2023-01-02T07:19:49.868Z,74.15
2023-01-02T07:20:45.802Z,74.05
2023-01-02T07:21:44.784Z,74.15
2023-01-02T07:22:44.782Z,74.15
2023-01-02T07:23:44.754Z,74.15
2023-01-02T07:24:44.827Z,74.15
2023-01-02T07:25:44.925Z,74.15
2023-01-02T07:26:44.748Z,74.15
2023-01-02T07:27:44.723Z,74.15
2023-01-02T07:28:44.723Z,74.15
2023-01-02T07:29:44.695Z,74.15
2023-01-02T07:30:44.683Z,74.15
2023-01-02T07:31:44.716Z,74.15
2023-01-02T07:32:44.663Z,74.15
2023-01-02T07:33:44.643Z,74.15
2023-01-02T07:34:44.650Z,74.19
2023-01-02T07:35:44.636Z,74.15
2023-01-02T07:36:44.621Z,74.15
2023-01-02T07:37:44.617Z,74.15
2023-01-02T07:38:53.736Z,74.15
2023-01-02T07:39:44.701Z,74.19
2023-01-02T07:40:44.640Z,74.19
2023-01-02T07:41:44.709Z,74.15
2023-01-02T07:42:44.693Z,74.15
2023-01-02T07:43:44.645Z,74.15
2023-01-02T07:44:44.658Z,74.15
2023-01-02T07:45:50.042Z,74.15
2023-01-02T07:46:46.934Z,74.19
2023-01-02T07:51:57.088Z,74.15
2023-01-02T07:52:55.645Z,74.19
2023-01-02T07:53:55.590Z,74.15
2023-01-02T08:03:49.228Z,74.19
2023-01-02T08:10:11.436Z,74.19
2023-01-02T08:14:44.927Z,74.19
2023-01-02T08:15:33.257Z,74.19
2023-01-02T08:16:33.664Z,74.19
2023-01-02T08:17:35.486Z,74.29
2023-01-02T08:18:56.870Z,74.39
2023-01-02T08:20:43.152Z,74.39
2023-01-02T08:30:45.223Z,74.29
2023-01-02T08:40:07.754Z,74.29
2023-01-02T08:50:45.946Z,74.49
2023-01-02T08:51:42.307Z,74.39
2023-01-02T08:57:25.240Z,74.49
2023-01-02T09:02:37.138Z,74.90
2023-01-02T09:03:37.645Z,74.99
2023-01-02T09:04:44.188Z,75.10
2023-01-02T09:05:32.822Z,75.20
2023-01-02T09:10:43.035Z,75.30
2023-01-02T09:11:41.339Z,75.30
2023-01-02T09:12:41.397Z,75.30
2023-01-02T09:13:41.851Z,75.16
2023-01-02T09:14:42.031Z,75.26
2023-01-02T09:15:41.238Z,75.26
2023-01-02T09:16:42.683Z,75.36
2023-01-02T09:18:02.484Z,75.36
2023-01-02T09:18:41.536Z,75.36
2023-01-02T09:19:41.193Z,75.46
2023-01-02T09:20:41.090Z,75.46
2023-01-02T09:21:41.090Z,75.36
2023-01-02T09:22:41.378Z,75.36
2023-01-02T09:24:03.247Z,75.76
2023-01-02T09:24:41.500Z,76.07
2023-01-02T09:25:49.055Z,76.17
2023-01-02T09:26:43.072Z,76.37
2023-01-02T09:31:46.857Z,77.17
2023-01-02T09:32:41.191Z,77.17
2023-01-02T09:33:53.616Z,77.08
2023-01-02T09:43:10.954Z,75.46
2023-01-02T09:44:17.287Z,75.36
2023-01-02T09:45:15.439Z,75.36
2023-01-02T09:46:09.350Z,75.26
2023-01-02T09:47:07.137Z,75.26
2023-01-02T09:48:28.393Z,75.16
2023-01-02T09:49:06.993Z,75.16
2023-01-02T09:50:06.321Z,75.46
2023-01-02T09:51:07.983Z,75.56
2023-01-02T09:52:07.348Z,75.46
2023-01-02T09:56:55.819Z,75.16
2023-01-02T09:58:03.708Z,75.06
2023-01-02T09:59:04.076Z,75.06
2023-01-02T09:59:55.371Z,75.06
2023-01-02T10:00:57.711Z,74.96
2023-01-02T10:06:07.568Z,74.86
2023-01-02T10:07:05.613Z,74.86
2023-01-02T10:21:17.778Z,74.86
2023-01-02T10:22:05.674Z,74.86
2023-01-02T10:23:05.595Z,74.86
2023-01-02T10:24:05.689Z,74.96
2023-01-02T10:25:05.599Z,75.06
2023-01-02T10:26:06.019Z,74.96
2023-01-02T10:27:05.870Z,74.96
2023-01-02T10:28:05.582Z,74.86
2023-01-02T10:29:07.008Z,74.86
2023-01-02T10:33:55.141Z,75.06
2023-01-02T10:34:49.170Z,75.36
2023-01-02T10:37:03.070Z,75.56
2023-01-02T10:42:43.417Z,75.96
2023-01-02T10:46:55.161Z,75.46
2023-01-02T10:47:53.406Z,75.36
2023-01-02T10:53:06.936Z,75.06
2023-01-02T11:03:26.063Z,74.86
2023-01-02T11:04:18.281Z,74.76
2023-01-02T11:18:39.725Z,74.55
2023-01-02T11:19:46.619Z,74.55
2023-01-02T11:20:38.107Z,74.46
2023-01-02T11:21:51.127Z,74.46
2023-01-02T11:23:53.869Z,74.35
2023-01-02T11:28:52.682Z,74.05
2023-01-02T12:33:16.941Z,74.15
2023-01-02T12:38:34.595Z,74.15
2023-01-02T12:44:04.235Z,74.15
2023-01-02T12:45:15.352Z,74.05
2023-01-02T13:02:49.858Z,74.15
2023-01-02T13:38:00.554Z,74.05
2023-01-02T13:38:59.681Z,74.05
2023-01-02T14:17:29.017Z,73.95
2023-01-02T14:31:14.545Z,73.95
2023-01-02T14:32:15.171Z,74.05
2023-01-02T14:33:19.937Z,74.05
2023-01-02T14:50:55.785Z,73.85
2023-01-02T14:51:34.555Z,73.85
2023-01-02T14:52:33.611Z,73.85
2023-01-02T14:53:48.725Z,73.85
2023-01-02T14:54:35.392Z,73.85
2023-01-02T14:55:44.435Z,73.85
2023-01-02T15:02:44.357Z,73.85
2023-01-02T15:02:55.010Z,73.85
2023-01-02T15:04:02.700Z,73.85
2023-01-02T15:08:43.245Z,73.85
2023-01-02T15:09:35.474Z,73.85
2023-01-02T15:10:37.404Z,73.85
2023-01-02T15:48:26.245Z,73.25
2023-01-02T15:57:36.649Z,73.14
2023-01-02T16:06:37.919Z,72.74
2023-01-02T16:11:35.845Z,72.85
2023-01-02T16:12:20.479Z,72.94
2023-01-02T16:13:19.191Z,73.14
2023-01-02T16:14:19.114Z,73.55
2023-01-02T16:15:19.116Z,74.05
2023-01-02T16:16:19.564Z,74.55
2023-01-02T16:17:19.078Z,74.76
2023-01-02T16:18:19.088Z,74.86
2023-01-02T16:19:19.061Z,75.26
2023-01-02T16:20:19.291Z,75.26
2023-01-02T16:21:19.011Z,75.46
2023-01-02T16:22:19.426Z,75.67
2023-01-02T16:23:19.877Z,75.87
2023-01-02T16:24:19.092Z,75.87
2023-01-02T16:25:19.402Z,75.96
2023-01-02T16:26:19.047Z,75.96
2023-01-02T16:27:19.024Z,76.17
2023-01-02T16:28:36.121Z,76.27
2023-01-02T16:29:20.027Z,76.37
2023-01-02T16:30:18.865Z,76.47
2023-01-02T16:31:19.046Z,76.47
2023-01-02T16:32:18.897Z,76.47
2023-01-02T17:04:34.286Z,77.08
2023-01-02T17:41:26.849Z,77.98
2023-01-02T17:45:56.256Z,78.08
2023-01-02T18:08:18.179Z,78.39
2023-01-02T18:08:49.124Z,78.39
2023-01-02T18:09:28.870Z,78.39
2023-01-02T18:10:32.604Z,78.39
2023-01-02T18:38:28.867Z,78.39
2023-01-02T18:43:09.520Z,78.28
2023-01-02T18:43:46.422Z,78.28
2023-01-02T18:44:47.158Z,78.28
2023-01-02T18:50:38.023Z,78.39
2023-01-02T18:51:13.291Z,78.39
2023-01-02T19:10:23.653Z,78.49
2023-01-02T19:11:40.637Z,78.59
2023-01-02T19:16:31.664Z,78.49
2023-01-02T19:17:10.498Z,78.49
2023-01-02T19:34:19.902Z,78.69
2023-01-02T19:57:17.784Z,78.89
2023-01-02T20:13:03.882Z,79.19
2023-01-02T20:13:40.719Z,79.19
2023-01-02T20:14:40.672Z,79.19
2023-01-02T20:15:40.789Z,79.09
2023-01-02T20:16:40.644Z,79.09
2023-01-02T20:17:40.720Z,79.09
2023-01-02T20:18:41.152Z,79.09
2023-01-02T20:20:50.411Z,78.99
2023-01-02T20:21:40.545Z,79.09
2023-01-02T20:22:40.926Z,79.19
2023-01-02T20:28:02.986Z,79.69
2023-01-02T20:28:54.942Z,80.10
2023-01-02T20:29:57.320Z,80.70
2023-01-02T20:31:04.869Z,81.41
2023-01-02T20:31:54.957Z,81.71
2023-01-02T20:33:37.431Z,81.81
2023-01-02T20:34:00.440Z,82.31
2023-01-02T20:39:14.809Z,81.61
2023-01-02T20:40:04.392Z,81.61
2023-01-02T20:41:04.558Z,81.51
2023-01-02T20:43:13.038Z,81.41
2023-01-02T20:44:19.196Z,81.41
2023-01-02T20:45:15.505Z,81.41
2023-01-02T20:46:04.247Z,81.30
2023-01-02T20:47:04.273Z,81.21
2023-01-02T20:48:04.570Z,81.21
2023-01-02T20:49:04.358Z,81.30
2023-01-02T20:50:04.107Z,81.30
2023-01-02T20:51:04.207Z,81.21
2023-01-02T20:52:04.064Z,81.30
2023-01-02T20:53:09.035Z,81.30
2023-01-02T20:54:04.142Z,81.30
2023-01-02T20:55:04.136Z,81.30
2023-01-02T20:56:04.068Z,81.21
2023-01-02T20:57:04.007Z,81.21
2023-01-02T20:58:04.023Z,81.21
2023-01-02T20:59:04.964Z,81.21
2023-01-02T21:00:04.140Z,81.07
2023-01-02T21:01:05.284Z,81.07
2023-01-02T21:02:04.181Z,81.07
2023-01-02T21:03:04.241Z,81.07
2023-01-02T21:04:05.130Z,81.37
2023-01-02T21:09:32.535Z,81.98
2023-01-02T21:10:23.691Z,81.98
2023-01-02T21:14:59.178Z,81.87
2023-01-02T21:16:00.723Z,81.87
2023-01-02T21:26:33.401Z,82.48
2023-01-02T21:31:40.662Z,83.08
2023-01-02T21:47:38.664Z,83.28
2023-01-02T21:53:28.698Z,83.08
2023-01-02T21:54:14.392Z,82.98
2023-01-02T21:59:33.795Z,82.98
2023-01-02T22:00:31.399Z,82.88
2023-01-02T22:01:40.839Z,82.78
2023-01-02T22:02:38.626Z,82.78
2023-01-02T22:03:31.958Z,82.78
2023-01-02T22:04:30.753Z,82.78
2023-01-02T22:05:52.231Z,82.68
2023-01-02T22:07:04.280Z,82.78
2023-01-02T22:11:14.448Z,82.88
2023-01-02T22:12:13.057Z,83.18
2023-01-02T22:13:12.299Z,82.88
2023-01-02T22:14:12.072Z,82.38
2023-01-02T22:15:12.079Z,81.57
2023-01-02T22:16:12.009Z,80.87
2023-01-02T22:17:12.065Z,80.02
2023-01-02T22:18:11.933Z,79.42
2023-01-02T22:19:11.902Z,78.81
2023-01-02T22:20:11.914Z,78.41
2023-01-02T22:21:11.873Z,78.11
2023-01-02T22:22:11.885Z,77.67
2023-01-02T22:23:11.851Z,77.47
2023-01-02T22:24:12.043Z,77.17
2023-01-02T22:25:11.975Z,76.87
2023-01-02T22:26:12.255Z,76.56
2023-01-02T22:27:11.966Z,76.36
2023-01-02T22:31:56.009Z,75.22
2023-01-02T22:32:55.784Z,74.92
2023-01-02T22:33:55.607Z,74.72
2023-01-02T22:34:55.509Z,74.52
2023-01-02T22:35:55.701Z,74.41
2023-01-02T22:36:55.513Z,74.32
2023-01-02T22:37:55.578Z,74.11
2023-01-02T22:39:26.337Z,74.01
2023-01-02T22:39:56.497Z,73.88
2023-01-02T22:40:55.503Z,73.78
2023-01-02T22:41:55.774Z,73.68
2023-01-02T22:43:04.852Z,73.58
2023-01-02T22:43:56.472Z,73.47
2023-01-02T22:44:55.764Z,73.38
2023-01-02T22:45:55.916Z,73.18
2023-01-02T22:46:55.622Z,73.18
2023-01-02T22:47:55.743Z,73.07
2023-01-02T22:49:16.931Z,72.97
2023-01-02T22:49:56.899Z,72.97
2023-01-02T22:50:55.642Z,72.77
2023-01-02T22:52:07.067Z,72.77
2023-01-02T22:52:56.794Z,72.67
2023-01-02T22:53:55.964Z,72.57
2023-01-02T22:54:56.103Z,72.47
2023-01-02T22:55:55.391Z,72.37
2023-01-02T22:56:55.307Z,72.37
2023-01-02T22:57:55.259Z,72.17
2023-01-02T22:58:55.347Z,72.17
2023-01-02T22:59:55.289Z,72.17
2023-01-02T23:00:55.216Z,72.07
2023-01-02T23:01:55.522Z,72.07
2023-01-02T23:02:55.303Z,72.07
2023-01-02T23:03:55.242Z,71.97
2023-01-02T23:04:55.217Z,71.87
2023-01-02T23:05:55.187Z,71.87
2023-01-02T23:07:56.351Z,71.56
2023-01-02T23:08:55.336Z,71.56
2023-01-02T23:09:55.250Z,71.56
2023-01-02T23:10:55.317Z,71.47
2023-01-02T23:11:55.149Z,71.36
2023-01-02T23:12:55.105Z,71.36
2023-01-02T23:13:56.897Z,71.36
2023-01-02T23:14:55.121Z,71.36
2023-01-02T23:15:55.250Z,71.26
2023-01-02T23:16:55.197Z,71.16
2023-01-02T23:17:55.225Z,71.26
2023-01-02T23:18:57.116Z,71.16
2023-01-02T23:19:56.113Z,71.06
2023-01-02T23:20:55.125Z,70.96
2023-01-02T23:21:55.036Z,70.96
2023-01-02T23:22:55.017Z,70.86
2023-01-02T23:23:55.039Z,70.86
2023-01-02T23:24:55.017Z,70.73
2023-01-02T23:25:55.041Z,70.73
2023-01-02T23:26:54.965Z,70.63
2023-01-02T23:27:55.028Z,70.63
2023-01-02T23:29:06.455Z,70.53
2023-01-02T23:29:55.949Z,70.53
2023-01-02T23:30:54.940Z,70.53
2023-01-02T23:31:55.132Z,70.43
2023-01-02T23:32:54.919Z,70.43
2023-01-02T23:33:54.846Z,70.43
2023-01-02T23:34:54.904Z,70.32
2023-01-02T23:35:54.958Z,70.32
2023-01-02T23:36:54.908Z,70.32
2023-01-02T23:37:54.843Z,70.32
2023-01-02T23:38:55.427Z,70.32
2023-01-02T23:39:54.848Z,70.23
2023-01-02T23:40:54.898Z,70.23
2023-01-02T23:41:55.260Z,70.23
2023-01-02T23:42:54.836Z,70.12
2023-01-02T23:43:54.865Z,70.12
2023-01-02T23:44:55.003Z,70.03
2023-01-02T23:45:55.084Z,70.03
2023-01-02T23:46:55.164Z,70.03
2023-01-02T23:51:53.827Z,69.72
2023-01-02T23:52:52.852Z,69.72
2023-01-02T23:53:52.868Z,69.62
2023-01-02T23:54:52.787Z,69.62
2023-01-02T23:55:52.861Z,69.52
2023-01-02T23:56:52.800Z,69.52
2023-01-02T23:57:52.755Z,69.52
2023-01-02T23:58:52.734Z,69.42
2023-01-02T23:59:52.744Z,69.52
